Laranjal do Jari, Brazil
Current Conditions -  °F | °C
As of 7:00 PM on Thursday 23 Oct 2014 (Local Time) from SBMQ Reporting Station
Clear Clear  
Wind Chill: 86°   Ceiling: Unl
Heat Index: 93°   Visibility: 6mi
Dew Point: 73°   Wind: 13mph
Humidity: 66%   Direction: 80°E
Pressure: 29.8"   Gusts: NA
Location:  1.12°S, 52°W
Report Text: SBMQ 232200Z 08011KT CAVOK 30/23 Q1009
Loading
Personal Weather Stations






























Interactive Weather Map
Tropical Storm Tracking
New forecast layout! Learn more

10-Day Weather Forecast

Advertisements
Track Severe Weather on mobile